createdAt,value
2022-11-17T00:00:22.304Z,30.15
2022-11-17T00:02:49.069Z,11.27
2022-11-17T00:05:15.988Z,12.68
2022-11-17T00:07:42.968Z,20.50
2022-11-17T00:10:09.796Z,2.05
2022-11-17T00:12:36.515Z,12.85
2022-11-17T00:15:03.439Z,19.10
2022-11-17T00:17:30.180Z,39.95
2022-11-17T00:19:56.874Z,1.67
2022-11-17T00:22:24.100Z,24.52
2022-11-17T00:24:51.065Z,55.83
2022-11-17T00:27:17.822Z,33.50
2022-11-17T00:29:44.569Z,15.85
2022-11-17T00:32:15.266Z,27.50
2022-11-17T00:34:42.035Z,7.93
2022-11-17T00:37:08.992Z,9.20
2022-11-17T00:39:35.772Z,2.88
2022-11-17T00:42:02.689Z,1.52
2022-11-17T00:44:29.829Z,3.30
2022-11-17T00:46:56.558Z,0.80
2022-11-17T00:49:23.297Z,0.50
2022-11-17T00:51:49.986Z,0.50
2022-11-17T00:54:19.888Z,0.63
2022-11-17T00:56:46.641Z,0.90
2022-11-17T00:59:13.791Z,1.60
2022-11-17T01:01:40.774Z,2.05
2022-11-17T01:04:07.580Z,0.52
2022-11-17T01:06:35.125Z,2.70
2022-11-17T01:09:02.843Z,0.30
2022-11-17T01:11:29.615Z,1.20
2022-11-17T01:13:57.522Z,1.85
2022-11-17T01:16:24.350Z,0.95
2022-11-17T01:18:51.557Z,0.30
2022-11-17T01:21:19.327Z,1.10
2022-11-17T01:23:46.138Z,0.60
2022-11-17T01:26:28.016Z,0.82
2022-11-17T01:28:54.757Z,1.40
2022-11-17T01:31:26.684Z,2.30
2022-11-17T01:33:53.545Z,0.60
2022-11-17T01:36:22.097Z,0.20
2022-11-17T01:38:48.799Z,0.90
2022-11-17T01:41:17.537Z,3.50
2022-11-17T01:43:48.330Z,0.30
2022-11-17T01:46:23.353Z,0.20
2022-11-17T01:48:50.068Z,2.28
2022-11-17T01:51:16.766Z,7.93
2022-11-17T01:53:43.651Z,1.85
2022-11-17T01:56:12.811Z,13.52
2022-11-17T01:58:43.011Z,4.65
2022-11-17T02:01:09.780Z,0.95
2022-11-17T02:03:36.811Z,0.40
2022-11-17T02:06:20.917Z,1.02
2022-11-17T02:08:48.313Z,1.52
2022-11-17T02:11:16.991Z,3.38
2022-11-17T02:13:43.639Z,0.55
2022-11-17T02:16:13.865Z,1.00
2022-11-17T02:18:44.080Z,0.82
2022-11-17T02:21:44.179Z,1.02
2022-11-17T02:24:29.583Z,1.25
2022-11-17T02:27:24.525Z,1.00
2022-11-17T02:30:00.469Z,1.63
2022-11-17T02:32:33.187Z,3.45
2022-11-17T02:35:04.653Z,2.78
2022-11-17T02:37:49.212Z,2.88
2022-11-17T02:40:21.004Z,1.63
2022-11-17T02:42:51.243Z,1.65
2022-11-17T02:45:20.882Z,1.50
2022-11-17T02:47:48.556Z,1.55
2022-11-17T02:50:15.323Z,46.75
2022-11-17T02:52:42.007Z,92.72
2022-11-17T02:55:09.587Z,189.30
2022-11-17T02:57:37.676Z,5.72
2022-11-17T03:00:10.540Z,103.65
2022-11-17T03:02:49.023Z,91.47
2022-11-17T03:05:19.568Z,105.43
2022-11-17T03:08:21.511Z,99.20
2022-11-17T03:10:57.662Z,53.42
2022-11-17T03:13:48.135Z,63.58
2022-11-17T03:16:44.060Z,51.10
2022-11-17T03:19:19.967Z,51.83
2022-11-17T03:22:16.322Z,18.35
2022-11-17T03:24:55.244Z,11.63
2022-11-17T03:27:37.940Z,76.13
2022-11-17T03:30:07.011Z,4.47
2022-11-17T03:32:38.908Z,2.67
2022-11-17T03:35:11.342Z,0.83
2022-11-17T03:37:42.619Z,1.90
2022-11-17T03:40:11.107Z,21.25
2022-11-17T03:42:39.415Z,18.10
2022-11-17T03:45:26.821Z,93.68
2022-11-17T03:48:03.415Z,96.60
2022-11-17T03:51:01.668Z,71.88
2022-11-17T03:53:28.379Z,121.65
2022-11-17T03:56:23.027Z,3.67
2022-11-17T03:58:58.050Z,99.45
2022-11-17T04:01:24.865Z,10.00
2022-11-17T04:03:51.961Z,46.80
2022-11-17T04:06:18.748Z,5.88
2022-11-17T04:08:45.456Z,58.25
2022-11-17T04:11:12.118Z,1.45
2022-11-17T04:13:38.772Z,13.68
2022-11-17T04:16:05.651Z,100.63
2022-11-17T04:18:32.306Z,1.38
2022-11-17T04:20:58.954Z,2.97
2022-11-17T04:23:25.713Z,65.47
2022-11-17T04:25:54.059Z,73.20
2022-11-17T04:28:21.332Z,15.88
2022-11-17T04:30:47.995Z,8.07
2022-11-17T04:33:14.698Z,7.70
2022-11-17T04:35:41.353Z,8.18
2022-11-17T04:38:08.008Z,15.30
2022-11-17T04:40:34.739Z,2.15
2022-11-17T04:43:01.426Z,2.47
2022-11-17T04:45:28.111Z,14.85
2022-11-17T04:47:54.835Z,2.35
2022-11-17T04:50:21.507Z,5.38
2022-11-17T04:52:48.178Z,6.43
2022-11-17T04:55:14.847Z,27.80
2022-11-17T04:57:41.592Z,11.20
2022-11-17T05:00:08.836Z,9.73
2022-11-17T05:02:35.590Z,16.17
2022-11-17T05:05:02.340Z,3.70
2022-11-17T05:07:29.155Z,20.73
2022-11-17T05:09:55.963Z,16.08
2022-11-17T05:12:22.633Z,5.32
2022-11-17T05:14:49.355Z,17.77
2022-11-17T05:17:16.469Z,0.60
2022-11-17T05:19:46.924Z,39.75
2022-11-17T05:22:18.694Z,21.30
2022-11-17T05:24:45.354Z,25.15
2022-11-17T05:27:12.015Z,7.63
2022-11-17T05:29:38.745Z,0.15
2022-11-17T05:32:05.442Z,1.80
2022-11-17T05:34:32.097Z,0.45
2022-11-17T05:36:58.759Z,0.82
2022-11-17T05:39:25.530Z,5.93
2022-11-17T05:41:52.174Z,2.58
2022-11-17T05:44:18.895Z,4.47
2022-11-17T05:46:45.545Z,6.30
2022-11-17T05:49:12.199Z,0.73
2022-11-17T05:51:39.106Z,0.60
2022-11-17T05:54:05.880Z,0.93
2022-11-17T05:56:33.635Z,0.45
2022-11-17T05:59:41.569Z,0.30
2022-11-17T06:02:18.941Z,0.40
2022-11-17T06:04:45.603Z,0.63
2022-11-17T06:07:12.348Z,0.20
2022-11-17T06:09:40.551Z,50.00
2022-11-17T06:12:07.344Z,1.33
2022-11-17T06:14:34.693Z,1.25
2022-11-17T06:17:16.281Z,1.52
2022-11-17T06:19:46.881Z,10.43
2022-11-17T06:22:13.854Z,42.72
2022-11-17T06:24:43.723Z,39.95
2022-11-17T06:27:11.755Z,14.85
2022-11-17T06:29:43.893Z,19.40
2022-11-17T06:32:14.649Z,15.70
2022-11-17T06:34:42.353Z,67.10
2022-11-17T06:37:09.037Z,80.38
2022-11-17T06:39:35.645Z,72.38
2022-11-17T06:42:02.295Z,80.97
2022-11-17T06:44:29.021Z,40.28
2022-11-17T06:46:55.671Z,1.02
2022-11-17T06:49:22.332Z,0.30
2022-11-17T06:51:49.098Z,0.75
2022-11-17T06:54:15.851Z,5.20
2022-11-17T06:56:42.601Z,7.68
2022-11-17T06:59:11.893Z,0.90
2022-11-17T07:01:38.939Z,14.18
2022-11-17T07:04:05.611Z,0.20
2022-11-17T07:06:32.288Z,4.43
2022-11-17T07:08:59.048Z,0.75
2022-11-17T07:11:25.715Z,35.03
2022-11-17T07:13:52.392Z,69.78
2022-11-17T07:16:23.474Z,65.35
2022-11-17T07:18:50.697Z,58.13
2022-11-17T07:21:17.412Z,16.58
2022-11-17T07:23:44.112Z,1.40
2022-11-17T07:26:10.843Z,0.30
2022-11-17T07:28:37.692Z,0.10
2022-11-17T07:31:05.814Z,1.45
2022-11-17T07:33:32.632Z,0.50
2022-11-17T07:36:06.689Z,1.77
2022-11-17T07:38:37.108Z,12.02
2022-11-17T07:41:04.706Z,0.82
2022-11-17T07:43:31.475Z,44.83
2022-11-17T07:45:58.181Z,60.72
2022-11-17T07:48:24.891Z,51.35
2022-11-17T07:50:51.613Z,1.15
2022-11-17T07:53:18.296Z,0.63
2022-11-17T07:55:45.047Z,0.63
2022-11-17T07:58:11.758Z,0.82
2022-11-17T08:00:38.574Z,0.95
2022-11-17T08:03:05.466Z,0.20
2022-11-17T08:05:41.745Z,2.40
2022-11-17T08:08:10.212Z,0.70
2022-11-17T08:10:36.923Z,1.80
2022-11-17T08:13:03.643Z,1.05
2022-11-17T08:15:30.618Z,1.23
2022-11-17T08:17:58.714Z,5.00
2022-11-17T08:20:25.939Z,0.98
2022-11-17T08:22:52.924Z,1.50
2022-11-17T08:25:19.964Z,0.82
2022-11-17T08:27:46.660Z,1.13
2022-11-17T08:30:13.825Z,0.73
2022-11-17T08:32:46.158Z,0.30
2022-11-17T08:35:12.853Z,0.43
2022-11-17T08:37:40.896Z,0.40
2022-11-17T08:40:08.283Z,0.20
2022-11-17T08:42:34.970Z,0.20
2022-11-17T08:45:01.662Z,1.15
2022-11-17T08:47:28.405Z,0.30
2022-11-17T08:49:55.072Z,0.40
2022-11-17T08:52:21.798Z,0.47
2022-11-17T08:54:48.468Z,1.30
2022-11-17T08:57:15.228Z,0.50
2022-11-17T08:59:42.054Z,0.30
2022-11-17T09:02:11.103Z,1.05
2022-11-17T09:04:37.812Z,1.15
2022-11-17T09:07:04.528Z,1.15
2022-11-17T09:09:31.735Z,0.30
2022-11-17T09:11:59.014Z,8.82
2022-11-17T09:14:25.888Z,1.90
2022-11-17T09:16:53.056Z,0.35
2022-11-17T09:19:19.792Z,1.17
2022-11-17T09:21:46.503Z,0.55
2022-11-17T09:24:13.180Z,0.25
2022-11-17T09:26:39.871Z,1.15
2022-11-17T09:29:09.577Z,0.85
2022-11-17T09:31:36.334Z,0.30
2022-11-17T09:34:05.547Z,1.05
2022-11-17T09:36:32.869Z,33.53
2022-11-17T09:38:59.545Z,0.85
2022-11-17T09:41:27.224Z,0.40
2022-11-17T09:44:19.058Z,0.40
2022-11-17T09:46:54.926Z,0.60
2022-11-17T09:49:36.219Z,0.77
2022-11-17T09:52:36.702Z,0.40
2022-11-17T09:55:09.194Z,0.50
2022-11-17T09:57:42.713Z,0.43
2022-11-17T10:00:19.975Z,1.08
2022-11-17T10:02:46.717Z,0.60
2022-11-17T10:05:20.753Z,0.90
2022-11-17T10:07:49.212Z,0.73
2022-11-17T10:10:21.559Z,0.22
2022-11-17T10:12:51.558Z,0.88
2022-11-17T10:15:38.085Z,0.30
2022-11-17T10:18:09.500Z,0.43
2022-11-17T10:20:36.170Z,0.30
2022-11-17T10:23:02.931Z,0.30
2022-11-17T10:25:37.736Z,0.30
2022-11-17T10:28:08.423Z,0.20
2022-11-17T10:30:35.481Z,1.17
2022-11-17T10:33:02.545Z,0.30
2022-11-17T10:35:33.926Z,0.73
2022-11-17T10:38:20.027Z,0.30
2022-11-17T10:40:48.557Z,0.45
2022-11-17T10:43:15.329Z,0.30
2022-11-17T10:45:55.367Z,87.53
2022-11-17T10:48:31.620Z,2.78
2022-11-17T10:51:18.549Z,148.13
2022-11-17T10:53:46.998Z,40.85
2022-11-17T10:56:16.019Z,30.63
2022-11-17T10:58:58.883Z,2.97
2022-11-17T11:01:36.840Z,41.28
2022-11-17T11:04:04.584Z,100.35
2022-11-17T11:06:32.382Z,60.28
2022-11-17T11:09:14.401Z,124.60
2022-11-17T11:11:51.711Z,112.70
2022-11-17T11:14:27.360Z,110.75
2022-11-17T11:16:54.101Z,163.57
2022-11-17T11:19:20.885Z,104.22
2022-11-17T11:22:04.521Z,76.68
2022-11-17T11:24:54.173Z,106.63
2022-11-17T11:27:42.198Z,177.43
2022-11-17T11:30:13.766Z,125.93
2022-11-17T11:32:46.446Z,213.23
2022-11-17T11:38:33.387Z,46.60
2022-11-17T11:41:26.555Z,8.00
2022-11-17T11:46:30.726Z,11.48
2022-11-17T11:48:57.424Z,1.05
2022-11-17T11:51:29.546Z,2.92
2022-11-17T11:54:04.124Z,0.22
2022-11-17T11:56:34.959Z,0.30
2022-11-17T11:59:15.790Z,1.98
2022-11-17T12:01:49.731Z,2.95
2022-11-17T12:04:25.714Z,0.73
2022-11-17T12:07:07.164Z,1.75
2022-11-17T12:10:06.977Z,0.82
2022-11-17T12:12:40.137Z,0.40
2022-11-17T12:15:18.744Z,1.00
2022-11-17T12:17:58.759Z,0.77
2022-11-17T12:21:00.716Z,1.27
2022-11-17T12:23:46.149Z,0.45
2022-11-17T12:26:22.974Z,0.95
2022-11-17T12:28:49.678Z,1.05
2022-11-17T12:31:25.484Z,0.75
2022-11-17T12:33:52.166Z,0.30
2022-11-17T12:36:30.065Z,0.55
2022-11-17T12:39:00.982Z,0.40
2022-11-17T12:41:49.704Z,0.60
2022-11-17T12:44:37.863Z,0.52
2022-11-17T12:47:16.444Z,0.73
2022-11-17T12:49:54.785Z,0.40
2022-11-17T12:52:47.989Z,0.68
2022-11-17T12:57:41.357Z,0.77
2022-11-17T13:00:15.674Z,1.08
2022-11-17T13:02:55.400Z,0.30
2022-11-17T13:05:23.626Z,0.80
2022-11-17T13:07:50.305Z,1.55
2022-11-17T13:10:28.053Z,0.50
2022-11-17T13:13:16.688Z,0.40
2022-11-17T13:15:44.044Z,0.40
2022-11-17T13:18:15.327Z,1.05
2022-11-17T13:20:42.040Z,43.80
2022-11-17T13:23:20.012Z,0.40
2022-11-17T13:25:46.758Z,0.80
2022-11-17T13:28:45.798Z,0.30
2022-11-17T13:31:17.628Z,1.33
2022-11-17T13:33:44.313Z,0.93
2022-11-17T13:36:17.915Z,0.22
2022-11-17T13:38:51.914Z,0.30
2022-11-17T13:41:19.550Z,11.73
2022-11-17T13:43:46.227Z,1.15
2022-11-17T13:46:12.952Z,0.63
2022-11-17T13:48:41.150Z,0.57
2022-11-17T13:51:22.607Z,0.20
2022-11-17T13:54:00.722Z,0.20
2022-11-17T13:56:38.746Z,0.63
2022-11-17T13:59:25.654Z,0.20
2022-11-17T14:02:17.310Z,0.25
2022-11-17T14:05:11.784Z,0.10
2022-11-17T14:07:38.997Z,0.88
2022-11-17T14:10:20.945Z,0.47
2022-11-17T14:12:51.828Z,0.63
2022-11-17T14:15:22.972Z,0.85
2022-11-17T14:17:59.597Z,1.23
2022-11-17T14:20:26.258Z,0.17
2022-11-17T14:23:16.083Z,0.50
2022-11-17T14:25:44.108Z,2.30
2022-11-17T14:28:37.035Z,4.90
2022-11-17T14:31:03.730Z,0.20
2022-11-17T14:33:30.387Z,0.35
2022-11-17T14:35:58.653Z,1.85
2022-11-17T14:38:25.341Z,0.75
2022-11-17T14:40:52.610Z,0.77
2022-11-17T14:43:19.974Z,1.00
2022-11-17T14:45:46.789Z,1.52
2022-11-17T14:48:17.756Z,0.32
2022-11-17T14:50:46.126Z,1.85
2022-11-17T14:53:12.831Z,1.65
2022-11-17T14:55:39.546Z,1.88
2022-11-17T14:58:06.228Z,0.40
2022-11-17T15:00:32.883Z,0.60
2022-11-17T15:02:59.545Z,1.25
2022-11-17T15:05:26.213Z,0.68
2022-11-17T15:07:52.867Z,0.68
2022-11-17T15:10:19.586Z,1.83
2022-11-17T15:12:46.281Z,1.60
2022-11-17T15:15:12.925Z,0.57
2022-11-17T15:17:39.987Z,1.05
2022-11-17T15:20:07.317Z,0.47
2022-11-17T15:22:34.053Z,0.30
2022-11-17T15:25:00.720Z,0.57
2022-11-17T15:27:27.410Z,0.40
2022-11-17T15:29:54.106Z,1.40
2022-11-17T15:32:20.928Z,0.73
2022-11-17T15:34:47.658Z,1.67
2022-11-17T15:37:14.336Z,0.63
2022-11-17T15:39:41.005Z,1.42
2022-11-17T15:42:07.698Z,0.45
2022-11-17T15:44:34.406Z,0.50
2022-11-17T15:47:01.102Z,1.75
2022-11-17T15:49:27.765Z,0.60
2022-11-17T15:51:54.595Z,0.68
2022-11-17T15:54:21.323Z,1.08
2022-11-17T15:56:48.046Z,0.75
2022-11-17T15:59:14.973Z,2.03
2022-11-17T16:01:41.940Z,2.15
2022-11-17T16:04:09.339Z,1.42
2022-11-17T16:06:37.648Z,2.35
2022-11-17T16:09:04.916Z,0.55
2022-11-17T16:11:31.654Z,72.78
2022-11-17T16:13:58.945Z,0.50
2022-11-17T16:16:27.376Z,0.57
2022-11-17T16:18:54.521Z,2.05
2022-11-17T16:21:21.259Z,0.60
2022-11-17T16:23:49.553Z,1.02
2022-11-17T16:26:18.867Z,0.65
2022-11-17T16:28:45.695Z,1.83
2022-11-17T16:31:22.141Z,0.75
2022-11-17T16:33:56.376Z,1.95
2022-11-17T16:36:24.277Z,7.05
2022-11-17T16:39:00.700Z,0.50
2022-11-17T16:41:32.731Z,1.80
2022-11-17T16:43:59.873Z,1.05
2022-11-17T16:46:28.200Z,0.70
2022-11-17T16:48:55.198Z,1.00
2022-11-17T16:51:22.043Z,1.20
2022-11-17T16:53:54.238Z,0.63
2022-11-17T16:56:20.889Z,0.82
2022-11-17T16:58:50.786Z,1.92
2022-11-17T17:01:19.531Z,0.73
2022-11-17T17:03:46.295Z,1.27
2022-11-17T17:06:14.505Z,2.90
2022-11-17T17:08:41.280Z,1.75
2022-11-17T17:11:09.469Z,1.63
2022-11-17T17:13:36.224Z,0.45
2022-11-17T17:16:06.933Z,0.40
2022-11-17T17:18:33.666Z,0.70
2022-11-17T17:21:00.480Z,0.43
2022-11-17T17:23:27.250Z,1.23
2022-11-17T17:26:07.858Z,0.93
2022-11-17T17:28:36.601Z,0.77
2022-11-17T17:31:03.849Z,2.30
2022-11-17T17:33:34.475Z,2.83
2022-11-17T17:36:05.528Z,2.88
2022-11-17T17:38:32.203Z,1.35
2022-11-17T17:41:25.854Z,0.70
2022-11-17T17:44:00.396Z,0.20
2022-11-17T17:46:27.466Z,1.55
2022-11-17T17:48:54.333Z,0.30
2022-11-17T17:51:21.974Z,2.10
2022-11-17T17:53:48.646Z,6.68
2022-11-17T17:56:15.676Z,1.38
2022-11-17T17:58:42.382Z,1.85
2022-11-17T18:01:13.543Z,1.10
2022-11-17T18:03:40.452Z,0.40
2022-11-17T18:06:07.462Z,2.95
2022-11-17T18:08:35.131Z,1.27
2022-11-17T18:11:02.748Z,2.63
2022-11-17T18:13:31.103Z,3.42
2022-11-17T18:15:59.091Z,2.30
2022-11-17T18:18:25.768Z,0.98
2022-11-17T18:21:03.837Z,0.50
2022-11-17T18:23:30.796Z,0.30
2022-11-17T18:25:57.964Z,0.40
2022-11-17T18:28:25.029Z,0.57
2022-11-17T18:30:51.745Z,3.60
2022-11-17T18:33:18.436Z,1.92
2022-11-17T18:35:45.157Z,0.40
2022-11-17T18:38:11.920Z,1.75
2022-11-17T18:40:38.719Z,2.25
2022-11-17T18:43:05.395Z,0.50
2022-11-17T18:45:32.081Z,1.27
2022-11-17T18:47:58.785Z,1.65
2022-11-17T18:50:25.484Z,2.25
2022-11-17T18:52:52.160Z,1.25
2022-11-17T18:55:18.874Z,0.68
2022-11-17T18:57:45.561Z,7.85
2022-11-17T19:00:13.015Z,2.40
2022-11-17T19:02:39.820Z,0.30
2022-11-17T19:05:06.851Z,2.60
2022-11-17T19:07:33.571Z,0.63
2022-11-17T19:10:00.386Z,2.35
2022-11-17T19:12:27.125Z,12.52
2022-11-17T19:14:53.815Z,46.30
2022-11-17T19:17:20.539Z,65.13
2022-11-17T19:19:47.268Z,85.88
2022-11-17T19:22:13.962Z,48.30
2022-11-17T19:24:40.752Z,64.30
2022-11-17T19:27:07.418Z,63.70
2022-11-17T19:29:34.197Z,25.33
2022-11-17T19:32:00.864Z,78.53
2022-11-17T19:34:27.557Z,1.48
2022-11-17T19:36:54.236Z,66.50
2022-11-17T19:39:20.931Z,69.15
2022-11-17T19:41:47.632Z,24.00
2022-11-17T19:44:14.409Z,1.17
2022-11-17T19:46:41.121Z,52.03
2022-11-17T19:49:07.878Z,4.57
2022-11-17T19:51:35.392Z,41.78
2022-11-17T19:54:03.011Z,73.50
2022-11-17T19:56:30.126Z,95.70
2022-11-17T19:58:56.922Z,85.95
2022-11-17T20:01:25.074Z,91.05
2022-11-17T20:03:51.899Z,20.02
2022-11-17T20:06:20.085Z,52.72
2022-11-17T20:08:46.846Z,69.07
2022-11-17T20:11:15.365Z,13.80
2022-11-17T20:13:42.110Z,2.88
2022-11-17T20:16:12.411Z,0.30
2022-11-17T20:18:42.939Z,1.02
2022-11-17T20:21:10.147Z,3.15
2022-11-17T20:23:38.098Z,4.35
2022-11-17T20:26:21.787Z,0.30
2022-11-17T20:28:48.491Z,1.77
2022-11-17T20:31:20.114Z,1.92
2022-11-17T20:33:47.093Z,0.82
2022-11-17T20:36:16.044Z,0.95
2022-11-17T20:38:42.777Z,1.98
2022-11-17T20:41:09.585Z,2.15
2022-11-17T20:43:36.409Z,1.40
2022-11-17T20:46:03.359Z,5.45
2022-11-17T20:48:30.187Z,0.93
2022-11-17T20:51:00.515Z,0.70
2022-11-17T20:53:27.486Z,1.20
2022-11-17T20:55:57.827Z,0.65
2022-11-17T20:58:25.271Z,0.70
2022-11-17T21:00:52.168Z,0.60
2022-11-17T21:03:18.955Z,0.40
2022-11-17T21:05:59.157Z,0.85
2022-11-17T21:08:30.429Z,2.05
2022-11-17T21:11:05.390Z,0.30
2022-11-17T21:13:32.809Z,1.52
2022-11-17T21:16:13.548Z,0.90
2022-11-17T21:18:45.685Z,1.02
2022-11-17T21:21:12.377Z,1.17
2022-11-17T21:23:39.605Z,0.82
2022-11-17T21:26:10.142Z,1.80
2022-11-17T21:28:37.069Z,47.58
2022-11-17T21:31:11.201Z,1.30
2022-11-17T21:33:38.169Z,2.20
2022-11-17T21:36:06.665Z,1.20
2022-11-17T21:38:33.431Z,1.15
2022-11-17T21:41:11.306Z,5.35
2022-11-17T21:43:38.719Z,2.35
2022-11-17T21:46:10.651Z,1.35
2022-11-17T21:48:37.496Z,0.93
2022-11-17T21:51:05.006Z,2.05
2022-11-17T21:53:31.689Z,5.47
2022-11-17T21:56:05.413Z,11.93
2022-11-17T21:58:32.410Z,1.35
2022-11-17T22:00:59.366Z,1.95
2022-11-17T22:03:26.108Z,2.72
2022-11-17T22:05:55.721Z,1.05
2022-11-17T22:08:24.788Z,4.32
2022-11-17T22:10:51.482Z,0.77
2022-11-17T22:13:18.157Z,0.60
2022-11-17T22:15:44.851Z,1.35
2022-11-17T22:18:11.560Z,0.70
2022-11-17T22:20:41.064Z,2.45
2022-11-17T22:23:07.729Z,0.88
2022-11-17T22:25:49.822Z,3.15
2022-11-17T22:28:16.509Z,1.60
2022-11-17T22:30:43.361Z,2.13
2022-11-17T22:33:10.088Z,2.47
2022-11-17T22:35:36.784Z,2.25
2022-11-17T22:38:03.462Z,1.02
2022-11-17T22:40:30.212Z,2.17
2022-11-17T22:42:58.304Z,6.90
2022-11-17T22:45:27.709Z,1.90
2022-11-17T22:47:54.391Z,1.48
2022-11-17T22:50:21.092Z,36.17
2022-11-17T22:52:49.141Z,27.77
2022-11-17T22:55:15.871Z,7.53
2022-11-17T22:57:42.527Z,8.88
2022-11-17T23:00:09.884Z,1.48
2022-11-17T23:02:36.549Z,0.30
2022-11-17T23:05:03.367Z,1.15
2022-11-17T23:07:30.089Z,1.10
2022-11-17T23:09:56.836Z,0.30
2022-11-17T23:12:23.499Z,2.28
2022-11-17T23:14:50.170Z,2.08
2022-11-17T23:17:16.852Z,1.48
2022-11-17T23:19:43.587Z,0.47
2022-11-17T23:22:10.267Z,1.30
2022-11-17T23:24:36.966Z,2.50
2022-11-17T23:27:03.701Z,3.42
2022-11-17T23:29:30.371Z,0.30
2022-11-17T23:31:57.031Z,1.65
2022-11-17T23:34:23.679Z,5.35
2022-11-17T23:36:50.363Z,3.80
2022-11-17T23:39:17.099Z,15.13
2022-11-17T23:41:43.845Z,12.52
2022-11-17T23:44:10.498Z,10.60
2022-11-17T23:46:37.206Z,1.40
2022-11-17T23:49:03.961Z,28.45
2022-11-17T23:51:30.661Z,0.30
2022-11-17T23:54:01.089Z,1.20
2022-11-17T23:56:27.775Z,0.85
2022-11-17T23:58:54.458Z,1.58
